Nearby METAR Reports

 

KSJC - San Jose, California, USA
Distance from station: NE 9mi, 14km
Updated: Sun, 10-22-2017 9:53am CDT
Clear
Clear
 Wind from calm
Wind: Calm
Temperature: 52°F , 11°C
Dew Point: 48°F , 9°C
Humidity: 88%
Barometer: 30.35 inHg , 1027.8 hPa
Clouds: Clear
Visibility: 10 miles , 16 km
2017/10/22 14:53 KSJC 221453Z 00000KT 10SM CLR 11/09 A3035 RMK AO2 SLP275 T01060089 53005
KNUQ - Moffett Nas/Mtn, California, USA
Distance from station: N 9mi, 14km
Updated: Sun, 10-22-2017 9:56am CDT
Clear
Clear
 Wind from calm
Wind: Calm
Temperature: 52°F , 11°C
Dew Point: 48°F , 9°C
Humidity: 88%
Barometer: 30.35 inHg , 1027.8 hPa
Clouds: Clear
Visibility: 10 miles , 16 km
2017/10/22 14:56 KNUQ 221456Z 00000KT 10SM CLR 11/09 A3035 RMK AO2 SLP281 T01060094 53006
 
KPAO - Palo Alto, California, USA
Distance from station: NNW 14mi, 23km
Updated: Sun, 10-22-2017 9:47am CDT
Clear
Clear
 Wind from calm
Wind: Calm
Temperature: 50°F , 10°C
Dew Point: 50°F , 10°C
Humidity: 100%
Barometer: 30.36 inHg , 1028.1 hPa
Clouds: Clear
Visibility: 10 miles , 16 km
2017/10/22 14:47 KPAO 221447Z 00000KT 10SM SKC 10/10 A3036
KRHV - San Jose/Reid, California, USA
Distance from station: ENE 12mi, 19km
Updated: Sun, 10-22-2017 9:47am CDT
Clear
Clear
 Wind from calm
Wind: Calm
Temperature: 48°F , 9°C
Dew Point: 46°F , 8°C
Humidity: 94%
Barometer: 30.38 inHg , 1028.8 hPa
Clouds: Clear
Visibility: 10 miles , 16 km
2017/10/22 14:47 KRHV 221447Z 00000KT 10SM SKC 09/08 A3038
 
KOAK - Oakland, California, USA
Distance from station: NNW 31mi, 50km
Updated: Sun, 10-22-2017 9:53am CDT
Shallow fog, Few clouds
Shallow fog, Few clouds
 Wind from E
Wind: E 3 mph , 6 km/h
Temperature: 46°F , 8°C
Dew Point: 46°F , 8°C
Humidity: 100%
Barometer: 30.35 inHg , 1027.8 hPa
Summary: Shallow Fog
Clouds: Few Clouds
Visibility: 10 miles , 16 km
Cloud details: Few Clouds 500 ft
Few Clouds 1000 ft
2017/10/22 14:53 KOAK 221453Z 08003KT 10SM MIFG FEW005 FEW010 08/08 A3035 RMK AO2 SLP276 T00830083 53006 $
KSQL - San Carlos Airpo, California, USA
Distance from station: NW 21mi, 34km
Updated: Sun, 10-22-2017 9:47am CDT
Clear
Clear
 Wind from calm
Wind: Calm
Temperature: 52°F , 11°C
Dew Point: 50°F , 10°C
Humidity: 94%
Barometer: 30.35 inHg , 1027.8 hPa
Clouds: Clear
Visibility: 10 miles , 16 km
2017/10/22 14:47 KSQL 221447Z 00000KT 10SM SKC 11/10 A3035
 
KSFO - San Francisco, California, USA
Distance from station: NW 30mi, 49km
Updated: Sun, 10-22-2017 9:56am CDT
Few Clouds
Few Clouds
 Wind from calm
Wind: Calm
Temperature: 54°F , 12°C
Dew Point: 52°F , 11°C
Humidity: 94%
Barometer: 30.34 inHg , 1027.4 hPa
Clouds: Few Clouds
Visibility: 10 miles , 16 km
Cloud details: Few Clouds 1100 ft
2017/10/22 14:56 KSFO 221456Z 00000KT 10SM FEW011 12/11 A3034 RMK AO2 SLP275 T01220106 53008
KE16 - San Martin, California, USA
Distance from station: ESE 27mi, 43km
Updated: Sun, 10-22-2017 9:55am CDT
Light rain, Clear
Light rain, Clear
 Wind from calm
Wind: Calm
Temperature: 46°F , 8°C
Dew Point: 43°F , 6°C
Humidity: 87%
Barometer: 30.35 inHg , 1027.8 hPa
Summary: Light rain
Clouds: Clear
Visibility: 10 miles , 16 km
2017/10/22 14:55 KE16 221455Z AUTO 00000KT 10SM -RA CLR 08/06 A3035 RMK AO2
 
KWVI - Watsonville, California, USA
Distance from station: SSE 27mi, 44km
Updated: Sun, 10-22-2017 9:53am CDT
Clear
Clear
 Wind from calm
Wind: Calm
Temperature: 48°F , 9°C
Dew Point: 46°F , 8°C
Humidity: 94%
Barometer: 30.31 inHg , 1026.4 hPa
Clouds: Clear
Visibility: 10 miles , 16 km
2017/10/22 14:53 KWVI 221453Z AUTO 00000KT 10SM CLR 09/08 A3031 RMK AO2 SLP265 T00890083 55000 $
KHAF - Half Moon Bay, California, USA
Distance from station: WNW 31mi, 50km
Updated: Sun, 10-22-2017 10:15am CDT
Mist, Clear
Mist, Clear
 Wind from calm
Wind: Calm
Temperature: 52°F , 11°C
Dew Point: 50°F , 10°C
Humidity: 94%
Barometer: 30.32 inHg , 1026.8 hPa
Summary: Mist
Clouds: Clear
Visibility: 3 miles , 5 km
2017/10/22 15:15 KHAF 221515Z AUTO 00000KT 3SM BR CLR 11/10 A3032 RMK AO2
 
KHWD - Hayward, California, USA
Distance from station: N 28mi, 44km
Updated: Sun, 10-22-2017 9:54am CDT
Clear
Clear
 Wind from ENE
Wind: ENE 5 mph , 7 km/h
Temperature: 52°F , 11°C
Dew Point: 46°F , 8°C
Humidity: 82%
Barometer: 30.34 inHg , 1027.4 hPa
Clouds: Clear
Visibility: 10 miles , 16 km
2017/10/22 14:54 KHWD 221454Z 07004KT 10SM CLR 11/08 A3034 RMK AO2 SLP284 6//// T01110083 53005 PNO
KLVK - Livermore, California, USA
Distance from station: NNE 31mi, 51km
Updated: Sun, 10-22-2017 9:53am CDT
Clear
Clear
 Wind from calm
Wind: Calm
Temperature: 46°F , 8°C
Dew Point: 45°F , 7°C
Humidity: 93%
Barometer: 30.35 inHg , 1027.8 hPa
Clouds: Clear
Visibility: 10 miles , 16 km
2017/10/22 14:53 KLVK 221453Z 00000KT 10SM CLR 08/07 A3035 RMK AO2 SLP277 T00780067 53007